Flight Track Log - Related Links

Times and Time Zones

All times are in EDT time to prevent confusion due to time zone crossing. See the DAL268 flight status page for this flight to view local times or setup timezone preferences in your user account.

Time Position Orientation Groundspeed Altitude Reporting Facility
EDT Latitude Longitude Course Direction KTS MPH feet Rate Location/Type
Sat 02:40:07 PM 37.6346 -122.3620 20° North 174 200 700  Level FlightAware ADS-B
Sat 02:40:13 PM 37.6382 -122.3570 48° Northeast 173 199 1,000 3,000 Climbing FlightAware ADS-B
Sat 02:40:17 PM 37.6399 -122.3540 54° Northeast 165 190 1,200 3,750 Climbing FlightAware ADS-B
Sat 02:40:21 PM 37.6417 -122.3510 53° Northeast 161 185 1,500 3,750 Climbing FlightAware ADS-B
Sat 02:40:25 PM 37.6439 -122.3480 47° Northeast 161 185 1,700 1,800 Climbing FlightAware ADS-B
Sat 02:40:41 PM 37.6525 -122.3370 45° Northeast 182 209 2,100 1,125 Climbing FlightAware ADS-B
Sat 02:40:57 PM 37.6627 -122.3240 45° Northeast 207 238 2,300 1,161 Climbing FlightAware ADS-B
Sat 02:41:12 PM 37.6731 -122.3090 49° Northeast 231 266 2,700 1,355 Climbing FlightAware ADS-B
Sat 02:41:28 PM 37.6847 -122.2930 48° Northeast 251 289 3,000 1,688 Climbing FlightAware ADS-B
Sat 02:41:44 PM 37.6980 -122.2740 48° Northeast 271 312 3,600 2,571 Climbing FlightAware ADS-B
Sat 02:41:56 PM 37.7080 -122.2600 48° Northeast 272 313 4,200 3,158 Climbing FlightAware ADS-B
Sat 02:42:03 PM 37.7133 -122.2510 53° Northeast 272 313 4,600 3,000 Climbing FlightAware ADS-B
Sat 02:42:14 PM 37.7191 -122.2350 65° Northeast 274 315 5,100 2,909 Climbing FlightAware ADS-B
Sat 02:42:36 PM 37.7296 -122.2020 68° East 279 321 6,200 3,077 Climbing FlightAware ADS-B
Sat 02:42:53 PM 37.7379 -122.1770 67° East 281 323 7,100 3,097 Climbing FlightAware ADS-B
Sat 02:43:07 PM 37.7449 -122.1540 69° East 282 325 7,800 3,000 Climbing FlightAware ADS-B
Sat 02:43:23 PM 37.7520 -122.1300 69° East 283 326 8,600 2,813 Climbing FlightAware ADS-B
Sat 02:43:39 PM 37.7594 -122.1050 69° East 287 330 9,300 2,364 Climbing FlightAware ADS-B
Sat 02:43:56 PM 37.7670 -122.0780 70° East 294 338 9,900 2,043 Climbing FlightAware ADS-B
Sat 02:44:26 PM 37.7822 -122.0280 69° East 313 360 10,900 1,600 Climbing FlightAware ADS-B
Sat 02:44:56 PM 37.7978 -121.9730 70° East 347 399 11,500 1,238 Climbing FlightAware ADS-B
Sat 02:45:29 PM 37.8163 -121.9080 70° East 378 435 12,200 1,875 Climbing FlightAware ADS-B
Sat 02:46:00 PM 37.8356 -121.8420 70° East 383 441 13,500 2,164 Climbing FlightAware ADS-B
Sat 02:46:30 PM 37.8545 -121.7780 69° East 399 459 14,400 2,164 Climbing FlightAware ADS-B
Sat 02:47:01 PM 37.8740 -121.7100 70° East 403 464 15,700 2,339 Climbing FlightAware ADS-B
Sat 02:47:29 PM 37.8915 -121.6470 71° East 409 471 16,700 2,136 Climbing FlightAware ADS-B
Sat 02:48:00 PM 37.9056 -121.5760 76° East 413 475 17,800 2,129 Climbing FlightAware ADS-B
Sat 02:48:31 PM 37.9193 -121.5010 77° East 418 481 18,900 2,032 Climbing FlightAware ADS-B
Sat 02:49:02 PM 37.9338 -121.4270 76° East 424 488 19,900 1,818 Climbing FlightAware ADS-B
Sat 02:49:37 PM 37.9510 -121.3430 75° East 430 495 20,900 1,775 Climbing FlightAware ADS-B
Sat 02:50:13 PM 37.9690 -121.2540 76° East 438 504 22,000 1,667 Climbing FlightAware ADS-B
Sat 02:50:49 PM 37.9870 -121.1650 76° East 445 512 22,900 1,583 Climbing FlightAware ADS-B
Sat 02:51:25 PM 38.0050 -121.0740 76° East 450 518 23,900 1,676 Climbing FlightAware ADS-B
Sat 02:51:57 PM 38.0220 -120.9910 75° East 454 522 24,800 1,565 Climbing FlightAware ADS-B
Sat 02:52:34 PM 38.0390 -120.9010 76° East 457 526 25,700 1,417 Climbing FlightAware ADS-B
Sat 02:53:09 PM 38.0560 -120.8100 77° East 462 532 26,500 1,268 Climbing FlightAware ADS-B
Sat 02:53:45 PM 38.0740 -120.7140 77° East 469 540 27,200 1,147 Climbing FlightAware ADS-B
Sat 02:54:17 PM 38.0900 -120.6270 77° East 475 547 27,800 1,147 Climbing FlightAware ADS-B
Sat 02:54:53 PM 38.1090 -120.5290 76° East 480 552 28,500 1,233 Climbing FlightAware ADS-B
Sat 02:55:30 PM 38.1250 -120.4420 77° East 479 551 29,300 1,714 Climbing FlightAware ADS-B
Sat 02:56:03 PM 38.1450 -120.3330 77° East 472 543 30,500 1,478 Climbing FlightAware ADS-B
Sat 02:56:39 PM 38.1630 -120.2360 77° East 468 539 31,000 417 Climbing FlightAware ADS-B
Sat 02:57:15 PM 38.1780 -120.1500 77° East 469 540 31,000  Level FlightAware ADS-B
Sat 02:57:23 PM 38.1763 -120.1612 259° West 471 542 31,000  Level FlightAware ADS-B
Sat 02:58:31 PM 38.2170 -119.9350 77° East 469 540 31,000  Level FlightAware ADS-B
Sat 02:59:01 PM 38.2310 -119.8570 77° East 467 537 31,000 529 Level FlightAware ADS-B
Sat 02:59:39 PM 38.2500 -119.7540 77° East 461 531 31,600 1,424 Climbing FlightAware ADS-B
Sat 03:00:00 PM 38.2596 -119.6994 77° East 451 519 32,400 1,839 Climbing FlightAware ADS-B
Sat 03:00:41 PM 38.2771 -119.6013 77° East 445 512 33,500 1,562 Climbing FlightAware ADS-B
Sat 03:01:13 PM 38.2928 -119.5121 77° East 439 505 34,300 1,250 Climbing FlightAware ADS-B
Sat 03:01:53 PM 38.3110 -119.4110 77° East 438 504 35,000 764 Climbing FlightAware ADS-B
Sat 03:02:08 PM 38.2966 -119.4908 257° West 440 506 35,000  Level FlightAware ADS-B
Sat 03:02:39 PM 38.3307 -119.2960 77° East 441 507 35,000  Level FlightAware ADS-B
Sat 03:03:31 PM 38.3537 -119.1634 77° East 440 506 35,000  Level FlightAware ADS-B
Sat 03:04:02 PM 38.3671 -119.0861 77° East 440 506 35,000  Level FlightAware ADS-B
Sat 03:04:48 PM 38.3871 -118.9702 78° East 440 506 35,000  Level FlightAware ADS-B
Sat 03:05:18 PM 38.4002 -118.8936 78° East 440 506 35,000  Level FlightAware ADS-B
Sat 03:06:18 PM 38.4240 -118.7570 77° East 439 505 35,000  Level FlightAware ADS-B
Sat 03:06:56 PM 38.4420 -118.6460 78° East 440 506 35,000  Level FlightAware ADS-B
Sat 03:07:47 PM 38.4620 -118.5310 77° East 440 506 35,000  Level FlightAware ADS-B
Sat 03:08:18 PM 38.4770 -118.4380 78° East 440 506 35,000  Level FlightAware ADS-B
Sat 03:08:53 PM 38.4920 -118.3490 78° East 441 507 35,000  Level FlightAware ADS-B
Sat 03:09:28 PM 38.5060 -118.2600 79° East 441 507 35,000  Level FlightAware ADS-B
Sat 03:10:03 PM 38.5210 -118.1720 78° East 441 507 35,000  Level FlightAware ADS-B
Sat 03:10:39 PM 38.5360 -118.0780 78° East 441 507 35,000  Level FlightAware ADS-B
Sat 03:11:25 PM 38.5530 -117.9750 78° East 442 509 35,000  Level FlightAware ADS-B
Sat 03:12:01 PM 38.5660 -117.8970 78° East 442 509 35,000  Level FlightAware ADS-B
Sat 03:12:47 PM 38.5830 -117.7970 78° East 442 509 35,000  Level FlightAware ADS-B
Sat 03:13:23 PM 38.5960 -117.7190 78° East 442 509 35,000  Level FlightAware ADS-B
Sat 03:13:59 PM 38.6090 -117.6400 78° East 442 509 35,000  Level FlightAware ADS-B
Sat 03:14:36 PM 38.6220 -117.5600 78° East 442 509 35,000  Level FlightAware ADS-B
Sat 03:15:12 PM 38.6350 -117.4810 78° East 442 509 35,000  Level FlightAware ADS-B
Sat 03:15:48 PM 38.6480 -117.4030 78° East 442 509 35,000  Level FlightAware ADS-B
Sat 03:16:24 PM 38.6610 -117.3250 78° East 442 509 35,000  Level FlightAware ADS-B
Sat 03:17:01 PM 38.6740 -117.2440 78° East 442 509 35,000  Level FlightAware ADS-B
Sat 03:17:37 PM 38.6870 -117.1660 78° East 442 509 35,000  Level FlightAware ADS-B
Sat 03:18:13 PM 38.7000 -117.0870 78° East 442 509 35,000  Level FlightAware ADS-B
Sat 03:18:49 PM 38.7130 -117.0090 78° East 442 509 35,000  Level FlightAware ADS-B
Sat 03:19:25 PM 38.7260 -116.9300 78° East 442 509 35,000  Level FlightAware ADS-B
Sat 03:20:01 PM 38.7390 -116.8520 78° East 442 509 35,000  Level FlightAware ADS-B
Sat 03:20:37 PM 38.7520 -116.7730 78° East 442 509 35,000  Level FlightAware ADS-B
Sat 03:21:27 PM 38.7897 -116.4428 78° East 444 511 35,000  Level Salt Lake Center
Sat 03:21:58 PM 38.8025 -116.3489 80° East 445 512 35,000  Level Oakland Center
Sat 03:22:59 PM 38.8258 -116.1928 79° East 445 512 35,000  Level Oakland Center
Sat 03:23:31 PM 38.8389 -116.0989 80° East 446 513 35,000  Level Salt Lake Center
Sat 03:24:33 PM 38.8617 -115.9428 79° East 446 513 35,000  Level Salt Lake Center
Sat 03:25:34 PM 38.8856 -115.7869 79° East 445 512 35,000  Level Salt Lake Center
Sat 03:26:36 PM 38.9072 -115.6306 80° East 445 512 35,000  Level Salt Lake Center
Sat 03:27:38 PM 38.9289 -115.4744 80° East 443 510 35,000  Level Salt Lake Center
Sat 03:28:39 PM 38.9506 -115.3206 80° East 446 513 35,000  Level Salt Lake Center
Sat 03:29:41 PM 38.9731 -115.1625 80° East 449 517 35,000  Level Salt Lake Center
Sat 03:30:43 PM 38.9972 -114.9742 81° East 446 513 35,000  Level Salt Lake Center
Sat 03:31:45 PM 39.0192 -114.8169 80° East 446 513 35,000  Level Salt Lake Center
Sat 03:37:24 PM 39.1350 -113.9130 80° East 450 518 35,000  Level FlightAware ADS-B
Sat 03:38:00 PM 39.1470 -113.8170 81° East 451 519 35,000  Level FlightAware ADS-B
Sat 03:38:34 PM 39.1580 -113.7270 81° East 451 519 35,000  Level FlightAware ADS-B
Sat 03:39:10 PM 39.1700 -113.6290 81° East 453 521 35,000  Level FlightAware ADS-B
Sat 03:39:28 PM 39.1758 -113.5850 80° East 454 522 35,000  Level FlightAware ADS-B
Sat 03:40:11 PM 39.1897 -113.4706 81° East 455 524 35,000  Level FlightAware ADS-B
Sat 03:40:51 PM 39.2028 -113.3621 81° East 456 525 35,000  Level FlightAware ADS-B
Sat 03:41:28 PM 39.2140 -113.2650 81° East 456 525 35,000  Level FlightAware ADS-B
Sat 03:41:53 PM 39.2226 -113.1958 81° East 456 525 35,000  Level FlightAware ADS-B
Sat 03:42:34 PM 39.2351 -113.0902 81° East 457 526 35,000  Level FlightAware ADS-B
Sat 03:43:18 PM 39.2489 -112.9716 81° East 457 526 35,000  Level FlightAware ADS-B
Sat 03:43:51 PM 39.2601 -112.8750 81° East 458 527 35,000  Level FlightAware ADS-B
Sat 03:44:23 PM 39.2701 -112.7880 82° East 458 527 35,000  Level FlightAware ADS-B
Sat 03:44:30 PM 39.2721 -112.7704 81° East 458 527 35,000  Level FlightAware ADS-B
Sat 03:44:54 PM 39.2794 -112.7070 82° East 458 527 35,000  Level FlightAware ADS-B
Sat 03:45:03 PM 39.2823 -112.6818 82° East 458 527 35,000  Level FlightAware ADS-B
Sat 03:45:26 PM 39.2894 -112.6190 82° East 458 527 35,000  Level FlightAware ADS-B
Sat 03:45:34 PM 39.2911 -112.6043 82° East 458 527 35,000  Level FlightAware ADS-B
Sat 03:46:00 PM 39.2996 -112.5290 82° East 459 528 35,000  Level FlightAware ADS-B
Sat 03:46:16 PM 39.3044 -112.4860 82° East 459 528 35,000  Level FlightAware ADS-B
Sat 03:46:19 PM 39.3046 -112.4841 84° East 460 529 35,000  Level FlightAware ADS-B
Sat 03:46:27 PM 39.3067 -112.4550 85° East 461 531 35,000  Level FlightAware ADS-B
Sat 03:46:49 PM 39.3088 -112.3980 87° East 462 532 35,000  Level FlightAware ADS-B
Sat 03:46:58 PM 39.3097 -112.3710 88° East 462 532 35,000  Level FlightAware ADS-B
Sat 03:47:20 PM 39.3116 -112.3119 88° East 462 532 35,000  Level FlightAware ADS-B
Sat 03:47:30 PM 39.3127 -112.2800 87° East 463 533 35,000  Level FlightAware ADS-B
Sat 03:47:57 PM 39.3156 -112.2070 87° East 462 532 35,000  Level FlightAware ADS-B
Sat 03:48:27 PM 39.3194 -112.1240 87° East 462 532 35,000  Level FlightAware ADS-B
Sat 03:48:48 PM 39.3221 -112.0671 86° East 463 533 35,000  Level FlightAware ADS-B
Sat 03:48:59 PM 39.3235 -112.0370 87° East 463 533 35,000  Level FlightAware ADS-B
Sat 03:49:30 PM 39.3275 -111.9520 86° East 463 533 35,000  Level FlightAware ADS-B
Sat 03:50:01 PM 39.3314 -111.8670 87° East 463 533 35,000  Level FlightAware ADS-B
Sat 03:50:15 PM 39.3331 -111.8290 87° East 464 534 35,000  Level FlightAware ADS-B
Sat 03:50:32 PM 39.3352 -111.7820 87° East 464 534 35,000  Level FlightAware ADS-B
Sat 03:51:02 PM 39.3387 -111.6980 87° East 464 534 35,000  Level FlightAware ADS-B
Sat 03:51:21 PM 39.3408 -111.6483 87° East 464 534 35,000  Level FlightAware ADS-B
Sat 03:51:38 PM 39.3428 -111.5990 87° East 465 535 35,000  Level FlightAware ADS-B
Sat 03:51:52 PM 39.3444 -111.5607 87° East 465 535 35,000  Level FlightAware ADS-B
Sat 03:52:08 PM 39.3462 -111.5150 87° East 465 535 35,000  Level FlightAware ADS-B
Sat 03:52:43 PM 39.3500 -111.4180 87° East 465 535 35,000  Level FlightAware ADS-B
Sat 03:52:49 PM 39.3505 -111.4073 87° East 466 536 35,000  Level FlightAware ADS-B (KGUC)
Sat 03:53:25 PM 39.3544 -111.3030 87° East 466 536 35,000  Level FlightAware ADS-B
Sat 03:53:27 PM 39.3547 -111.2960 87° East 466 536 35,000  Level FlightAware ADS-B
Sat 03:53:57 PM 39.3578 -111.2130 87° East 466 536 35,000  Level FlightAware ADS-B
Sat 03:53:59 PM 39.3579 -111.2121 81° East 466 536 35,000  Level FlightAware ADS-B
Sat 03:54:27 PM 39.3609 -111.1300 87° East 466 536 35,000  Level FlightAware ADS-B
Sat 03:54:39 PM 39.3621 -111.0993 87° East 466 536 35,000  Level FlightAware ADS-B
Sat 03:54:58 PM 39.3641 -111.0450 87° East 467 537 35,000  Level FlightAware ADS-B
Sat 03:55:19 PM 39.3661 -110.9883 87° East 466 536 35,000  Level FlightAware ADS-B
Sat 03:55:51 PM 39.3692 -110.8989 87° East 467 537 35,000  Level FlightAware ADS-B
Sat 03:56:24 PM 39.3724 -110.8058 87° East 468 539 35,000  Level FlightAware ADS-B
Sat 03:57:02 PM 39.3758 -110.7053 88° East 468 539 35,000  Level FlightAware ADS-B
Sat 03:57:32 PM 39.3783 -110.6309 88° East 468 539 35,000  Level FlightAware ADS-B
Sat 03:58:17 PM 39.3825 -110.4969 88° East 468 539 35,000  Level FlightAware ADS-B
Sat 03:58:47 PM 39.3852 -110.4116 88° East 468 539 35,000  Level FlightAware ADS-B
Sat 03:59:19 PM 39.3879 -110.3192 88° East 468 539 35,000  Level FlightAware ADS-B
Sat 03:59:50 PM 39.3905 -110.2335 88° East 469 540 35,000  Level FlightAware ADS-B
Sat 04:00:20 PM 39.3928 -110.1497 88° East 468 539 35,000  Level FlightAware ADS-B
Sat 04:00:52 PM 39.3953 -110.0594 88° East 469 540 35,000  Level FlightAware ADS-B
Sat 04:01:22 PM 39.3977 -109.9743 88° East 470 541 35,000  Level FlightAware ADS-B
Sat 04:01:54 PM 39.4000 -109.8845 88° East 468 539 35,000  Level FlightAware ADS-B
Sat 04:02:24 PM 39.4021 -109.8030 88° East 468 539 35,000  Level FlightAware ADS-B
Sat 04:02:56 PM 39.4043 -109.7141 88° East 468 539 35,000  Level FlightAware ADS-B
Sat 04:03:26 PM 39.4064 -109.6286 88° East 467 537 35,000  Level FlightAware ADS-B
Sat 04:03:58 PM 39.4084 -109.5444 88° East 467 537 35,000  Level FlightAware ADS-B
Sat 04:04:28 PM 39.4103 -109.4574 88° East 468 539 35,000  Level FlightAware ADS-B
Sat 04:04:58 PM 39.4122 -109.3710 88° East 467 537 35,000  Level FlightAware ADS-B (KGUC)
Sat 04:05:37 PM 39.4146 -109.2618 88° East 467 537 35,000  Level FlightAware ADS-B
Sat 04:06:08 PM 39.4162 -109.1796 88° East 467 537 35,000  Level FlightAware ADS-B
Sat 04:06:48 PM 39.4184 -109.0660 89° East 465 535 35,000  Level FlightAware ADS-B
Sat 04:07:18 PM 39.4200 -108.9836 89° East 465 535 35,000  Level FlightAware ADS-B
Sat 04:07:48 PM 39.4215 -108.8995 89° East 466 536 35,000  Level FlightAware ADS-B
Sat 04:08:19 PM 39.4230 -108.8141 89° East 467 537 35,000  Level FlightAware ADS-B
Sat 04:08:49 PM 39.4243 -108.7315 89° East 469 540 35,000  Level FlightAware ADS-B
Sat 04:09:20 PM 39.4257 -108.6442 89° East 470 541 35,000  Level FlightAware ADS-B (KGUC)
Sat 04:09:50 PM 39.4270 -108.5598 89° East 471 542 35,000  Level FlightAware ADS-B
Sat 04:10:22 PM 39.4283 -108.4690 89° East 472 543 35,000  Level FlightAware ADS-B
Sat 04:10:59 PM 39.4297 -108.3633 89° East 472 543 35,000  Level FlightAware ADS-B (KGUC)
Sat 04:11:29 PM 39.4307 -108.2823 89° East 472 543 35,000  Level FlightAware ADS-B (KANK)
Sat 04:12:02 PM 39.4318 -108.1862 89° East 473 544 35,000  Level FlightAware ADS-B
Sat 04:12:32 PM 39.4328 -108.1024 89° East 474 545 35,000  Level FlightAware ADS-B
Sat 04:13:02 PM 39.4336 -108.0192 89° East 474 545 35,000  Level FlightAware ADS-B
Sat 04:13:32 PM 39.4344 -107.9318 89° East 474 545 35,000  Level FlightAware ADS-B
Sat 04:14:03 PM 39.4352 -107.8453 89° East 474 545 35,000  Level FlightAware ADS-B
Sat 04:14:36 PM 39.4359 -107.7544 89° East 473 544 35,000  Level FlightAware ADS-B
Sat 04:14:47 PM 39.4358 -107.7753 269° West 473 544 35,000  Level FlightAware ADS-B (KGUC)
Sat 04:15:19 PM 39.4368 -107.6306 89° East 473 544 35,000  Level FlightAware ADS-B
Sat 04:15:49 PM 39.4373 -107.5480 90° East 472 543 35,000  Level FlightAware ADS-B
Sat 04:16:19 PM 39.4378 -107.4614 90° East 474 545 35,000  Level FlightAware ADS-B (KGUC)
Sat 04:16:50 PM 39.4382 -107.3740 90° East 474 545 35,000  Level FlightAware ADS-B
Sat 04:17:21 PM 39.4386 -107.2876 90° East 475 547 35,000  Level FlightAware ADS-B
Sat 04:17:51 PM 39.4389 -107.2058 90° East 474 545 35,000  Level FlightAware ADS-B
Sat 04:18:22 PM 39.4391 -107.1147 90° East 473 544 35,000  Level FlightAware ADS-B
Sat 04:18:54 PM 39.4392 -107.0301 90° East 472 543 35,000  Level FlightAware ADS-B
Sat 04:19:24 PM 39.4393 -106.9412 90° East 472 543 35,000  Level FlightAware ADS-B
Sat 04:19:55 PM 39.4395 -106.8500 90° East 471 542 35,000  Level FlightAware ADS-B
Sat 04:20:26 PM 39.4407 -106.7663 89° East 471 542 35,000  Level FlightAware ADS-B
Sat 04:20:57 PM 39.4419 -106.6771 89° East 472 543 35,000  Level FlightAware ADS-B (KANK)
Sat 04:21:28 PM 39.4429 -106.5897 89° East 473 544 35,000  Level FlightAware ADS-B (KANK)
Sat 04:21:59 PM 39.4437 -106.5062 89° East 473 544 35,000  Level FlightAware ADS-B (KANK)
Sat 04:22:32 PM 39.4445 -106.4104 89° East 471 542 35,000  Level FlightAware ADS-B (KANK)
Sat 04:23:03 PM 39.4452 -106.3222 89° East 474 545 35,000  Level FlightAware ADS-B (KANK)
Sat 04:23:10 PM 39.4453 -106.3075 89° East 474 545 35,000 279 Level FlightAware ADS-B (KEIK)
Sat 04:23:46 PM 39.4460 -106.2038 89° East 475 547 35,200 636 Climbing FlightAware ADS-B (KANK)
Sat 04:24:16 PM 39.4466 -106.1157 90° East 476 548 35,700 1,065 Climbing FlightAware ADS-B (KANK)
Sat 04:24:48 PM 39.4470 -106.0247 90° East 474 545 36,300 1,161 Climbing FlightAware ADS-B (KANK)
Sat 04:25:18 PM 39.4474 -105.9425 90° East 473 544 36,900 677 Climbing FlightAware ADS-B (KANK)
Sat 04:25:50 PM 39.4477 -105.8500 90° East 472 543 37,000 97 Climbing FlightAware ADS-B (KANK)
Sat 04:26:20 PM 39.4479 -105.7648 90° East 472 543 37,000  Level FlightAware ADS-B (KANK)
Sat 04:26:56 PM 39.4482 -105.6637 90° East 478 550 37,000  Level FlightAware ADS-B (KEIK)
Sat 04:27:34 PM 39.4485 -105.5554 90° East 484 557 37,000  Level FlightAware ADS-B (KEIK)
Sat 04:28:04 PM 39.4484 -105.4710 90° East 480 552 37,000  Level FlightAware ADS-B (KANK)
Sat 04:28:35 PM 39.4484 -105.3800 90° East 478 550 37,000  Level FlightAware ADS-B (KEIK)
Sat 04:29:05 PM 39.4483 -105.2949 90° East 474 545 37,000  Level FlightAware ADS-B (KANK)
Sat 04:29:35 PM 39.4481 -105.2122 90° East 470 541 37,000  Level FlightAware ADS-B (KANK)
Sat 04:30:05 PM 39.4480 -105.1258 90° East 478 550 37,000  Level FlightAware ADS-B (KEIK)
Sat 04:30:35 PM 39.4478 -105.0476 90° East 476 548 37,000  Level FlightAware ADS-B (KEIK)
Sat 04:31:05 PM 39.4474 -104.9576 90° East 469 540 37,000  Level FlightAware ADS-B (KEIK)
Sat 04:31:45 PM 39.4469 -104.8527 90° East 470 541 37,000  Level FlightAware ADS-B (KANK)
Sat 04:32:04 PM 39.4466 -104.7944 90° East 469 540 37,000  Level FlightAware ADS-B (KEIK)
Sat 04:32:35 PM 39.4461 -104.7105 90° East 467 537 37,000  Level FlightAware ADS-B (KANK)
Sat 04:33:05 PM 39.4455 -104.6215 91° East 468 539 37,000  Level FlightAware ADS-B (KEIK)
Sat 04:33:35 PM 39.4449 -104.5363 90° East 468 539 37,000  Level FlightAware ADS-B (KEIK)
Sat 04:34:06 PM 39.4442 -104.4500 91° East 469 540 37,000  Level FlightAware ADS-B (KEIK)
Sat 04:34:37 PM 39.4434 -104.3607 91° East 469 540 37,000  Level FlightAware ADS-B (KANK)
Sat 04:35:07 PM 39.4426 -104.2823 91° East 470 541 37,000  Level FlightAware ADS-B (KEIK)
Sat 04:35:38 PM 39.4417 -104.1911 91° East 469 540 37,000  Level FlightAware ADS-B (KEIK)
Sat 04:36:27 PM 39.4409 -104.1199 91° East 470 541 37,000  Level FlightAware ADS-B (KANK)
Sat 04:37:47 PM 39.4370 -103.8330 91° East 472 543 37,000  Level FlightAware ADS-B
Sat 04:38:19 PM 39.4360 -103.7390 91° East 473 544 37,000  Level FlightAware ADS-B
Sat 04:38:57 PM 39.4340 -103.6340 91° East 475 547 37,000  Level FlightAware ADS-B
Sat 04:39:27 PM 39.4330 -103.5500 91° East 476 548 37,000  Level FlightAware ADS-B
Sat 04:40:05 PM 39.4310 -103.4390 91° East 477 549 37,000  Level FlightAware ADS-B
Sat 04:40:43 PM 39.4290 -103.3320 91° East 478 550 37,000  Level FlightAware ADS-B
Sat 04:41:15 PM 39.4280 -103.2390 91° East 479 551 37,000  Level FlightAware ADS-B
Sat 04:41:51 PM 39.4260 -103.1370 91° East 480 552 37,000  Level FlightAware ADS-B
Sat 04:42:26 PM 39.4236 -103.0381 92° East 480 552 37,000  Level FlightAware ADS-B (KANK)
Sat 04:42:59 PM 39.4220 -102.9430 91° East 480 552 37,000  Level FlightAware ADS-B
Sat 04:43:35 PM 39.4190 -102.8390 92° East 480 552 37,000  Level FlightAware ADS-B
Sat 04:44:13 PM 39.4170 -102.7320 91° East 480 552 37,000  Level FlightAware ADS-B
Sat 04:44:52 PM 39.4140 -102.6250 92° East 482 555 37,000  Level FlightAware ADS-B
Sat 04:45:29 PM 39.4120 -102.5140 91° East 484 557 37,000  Level FlightAware ADS-B
Sat 04:46:23 PM 39.4090 -102.3700 91° East 485 558 37,000  Level FlightAware ADS-B
Sat 04:47:13 PM 39.4040 -102.2160 92° East 488 562 37,000  Level FlightAware ADS-B
Sat 04:47:49 PM 39.4010 -102.1080 92° East 490 564 37,000  Level FlightAware ADS-B
Sat 04:48:27 PM 39.3980 -102.0130 92° East 490 564 37,000  Level FlightAware ADS-B
Sat 04:49:01 PM 39.3950 -101.9010 92° East 493 567 37,000  Level FlightAware ADS-B
Sat 04:49:38 PM 39.3920 -101.7960 92° East 494 568 37,000  Level FlightAware ADS-B
Sat 04:50:14 PM 39.3890 -101.7050 92° East 494 568 37,000  Level FlightAware ADS-B
Sat 04:50:50 PM 39.3870 -101.6150 92° East 494 568 37,000  Level FlightAware ADS-B
Sat 04:51:28 PM 39.3840 -101.5200 92° East 494 568 37,000  Level FlightAware ADS-B
Sat 04:52:05 PM 39.3820 -101.4270 92° East 494 568 37,000  Level FlightAware ADS-B
Sat 04:52:42 PM 39.3790 -101.3340 92° East 494 568 37,000  Level FlightAware ADS-B
Sat 04:53:19 PM 39.3760 -101.2410 92° East 494 568 37,000  Level FlightAware ADS-B
Sat 04:53:55 PM 39.3740 -101.1500 92° East 494 568 37,000  Level FlightAware ADS-B
Sat 04:54:31 PM 39.3720 -101.0600 92° East 494 568 37,000  Level FlightAware ADS-B
Sat 04:55:07 PM 39.3690 -100.9700 92° East 494 568 37,000  Level FlightAware ADS-B
Sat 04:55:43 PM 39.3670 -100.8790 92° East 494 568 37,000  Level FlightAware ADS-B
Sat 04:56:20 PM 39.3640 -100.7860 92° East 494 568 37,000  Level FlightAware ADS-B
Sat 04:56:58 PM 39.3620 -100.6910 92° East 494 568 37,000  Level FlightAware ADS-B
Sat 04:57:34 PM 39.3590 -100.6000 92° East 494 568 37,000  Level FlightAware ADS-B
Sat 04:58:10 PM 39.3570 -100.5100 92° East 494 568 37,000  Level FlightAware ADS-B
Sat 04:58:46 PM 39.3540 -100.4200 92° East 494 568 37,000  Level FlightAware ADS-B
Sat 05:03:56 PM 39.3990 -99.2000 87° East 513 590 37,000  Level FlightAware ADS-B
Sat 05:04:36 PM 39.3990 -99.0960 90° East 513 590 37,000  Level FlightAware ADS-B
Sat 05:05:12 PM 39.3990 -99.0020 90° East 513 590 37,000  Level FlightAware ADS-B
Sat 05:05:48 PM 39.3990 -98.9080 90° East 513 590 37,000  Level FlightAware ADS-B
Sat 05:06:17 PM 39.3950 -98.7700 92° East 513 590 37,000  Level FlightAware ADS-B
Sat 05:06:56 PM 39.3950 -98.6690 90° East 513 590 37,000  Level FlightAware ADS-B
Sat 05:07:32 PM 39.3950 -98.5750 90° East 513 590 37,000  Level FlightAware ADS-B
Sat 05:08:10 PM 39.3950 -98.4750 90° East 513 590 37,000  Level FlightAware ADS-B
Sat 05:08:46 PM 39.3950 -98.3810 90° East 513 590 37,000  Level FlightAware ADS-B
Sat 05:09:22 PM 39.3950 -98.2870 90° East 513 590 37,000  Level FlightAware ADS-B
Sat 05:09:58 PM 39.3950 -98.1930 90° East 513 590 37,000  Level FlightAware ADS-B
Sat 05:10:49 PM 39.3680 -97.9370 98° East 514 592 37,000  Level FlightAware ADS-B
Sat 05:11:25 PM 39.3660 -97.8290 91° East 513 590 37,000  Level FlightAware ADS-B
Sat 05:12:03 PM 39.3640 -97.7070 91° East 512 589 37,000  Level FlightAware ADS-B
Sat 05:12:41 PM 39.3620 -97.5900 91° East 512 589 37,000  Level FlightAware ADS-B
Sat 05:13:15 PM 39.3610 -97.4910 91° East 511 588 37,000  Level FlightAware ADS-B
Sat 05:13:49 PM 39.3590 -97.3830 91° East 511 588 37,000  Level FlightAware ADS-B
Sat 05:14:21 PM 39.3580 -97.2880 91° East 511 588 37,000  Level FlightAware ADS-B
Sat 05:15:00 PM 39.3550 -97.1690 92° East 511 588 37,000  Level FlightAware ADS-B
Sat 05:15:35 PM 39.3530 -97.0630 91° East 511 588 37,000  Level FlightAware ADS-B
Sat 05:16:05 PM 39.3520 -96.9690 91° East 512 589 37,000  Level FlightAware ADS-B
Sat 05:16:22 PM 39.3506 -96.9178 92° East 513 590 37,000  Level FlightAware ADS-B
Sat 05:17:20 PM 39.3502 -96.8998 92° East 514 592 37,000  Level FlightAware ADS-B
Sat 05:18:23 PM 39.3447 -96.6492 92° East 518 596 37,000  Level FlightAware ADS-B
Sat 05:19:03 PM 39.3390 -96.4240 92° East 520 598 37,000  Level FlightAware ADS-B
Sat 05:19:40 PM 39.3364 -96.3056 92° East 522 601 37,000  Level FlightAware ADS-B
Sat 05:20:14 PM 39.3340 -96.2060 92° East 523 602 37,000  Level FlightAware ADS-B
Sat 05:20:49 PM 39.3310 -96.0940 92° East 523 602 37,000  Level FlightAware ADS-B
Sat 05:21:23 PM 39.3340 -96.2090 272° West 523 602 37,000  Level FlightAware ADS-B
Sat 05:21:58 PM 39.3320 -96.1260 92° East 523 602 37,000  Level FlightAware ADS-B
Sat 05:22:33 PM 39.3270 -95.9780 92° East 525 604 37,000  Level FlightAware ADS-B
Sat 05:23:13 PM 39.3230 -95.8140 92° East 525 604 37,000  Level FlightAware ADS-B
Sat 05:23:53 PM 39.3200 -95.7260 92° East 525 604 37,000  Level FlightAware ADS-B
Sat 05:24:01 PM 39.3126 -95.4945 92° East 525 604 37,000  Level FlightAware ADS-B
Sat 05:24:58 PM 39.3150 -95.5550 273° West 525 604 37,000  Level FlightAware ADS-B
Sat 05:25:33 PM 39.3110 -95.4460 93° East 525 604 37,000  Level FlightAware ADS-B
Sat 05:26:13 PM 39.3070 -95.3320 93° East 526 605 37,000  Level FlightAware ADS-B
Sat 05:26:43 PM 39.3030 -95.2180 93° East 526 605 37,000  Level FlightAware ADS-B
Sat 05:27:18 PM 39.2990 -95.1080 93° East 527 606 37,000  Level FlightAware ADS-B
Sat 05:27:58 PM 39.2930 -94.9440 93° East 528 608 37,000  Level FlightAware ADS-B
Sat 05:28:33 PM 39.2870 -94.7930 93° East 529 609 37,000  Level FlightAware ADS-B
Sat 05:29:05 PM 39.2773 -94.5387 93° East 531 611 37,000  Level FlightAware ADS-B
Sat 05:29:50 PM 39.2720 -94.4020 93° East 531 611 37,000  Level FlightAware ADS-B
Sat 05:30:25 PM 39.2670 -94.2890 93° East 533 613 37,000  Level FlightAware ADS-B
Sat 05:31:04 PM 39.2615 -94.1713 93° East 535 616 37,000  Level FlightAware ADS-B
Sat 05:32:06 PM 39.2520 -93.9720 93° East 535 616 37,000  Level FlightAware ADS-B
Sat 05:32:46 PM 39.2460 -93.8470 94° East 538 619 37,000  Level FlightAware ADS-B
Sat 05:33:17 PM 39.2410 -93.7430 94° East 538 619 37,000  Level FlightAware ADS-B
Sat 05:33:53 PM 39.2360 -93.6230 93° East 539 620 37,000  Level FlightAware ADS-B
Sat 05:34:30 PM 39.2300 -93.5070 94° East 539 620 37,000  Level FlightAware ADS-B
Sat 05:35:04 PM 39.2240 -93.3980 94° East 540 621 37,000  Level FlightAware ADS-B
Sat 05:35:41 PM 39.2180 -93.2780 94° East 541 623 37,000  Level FlightAware ADS-B
Sat 05:36:12 PM 39.2130 -93.1780 94° East 542 624 37,000  Level FlightAware ADS-B
Sat 05:36:51 PM 39.2060 -93.0550 94° East 542 624 37,000  Level FlightAware ADS-B
Sat 05:37:25 PM 39.2000 -92.9430 94° East 544 626 37,000  Level FlightAware ADS-B
Sat 05:37:57 PM 39.1940 -92.8390 94° East 546 628 37,000  Level FlightAware ADS-B
Sat 05:38:34 PM 39.1880 -92.7220 94° East 548 631 37,000  Level FlightAware ADS-B
Sat 05:39:07 PM 39.1820 -92.6230 94° East 548 631 37,000  Level FlightAware ADS-B
Sat 05:39:46 PM 39.1740 -92.4870 94° East 550 633 37,000  Level FlightAware ADS-B
Sat 05:40:27 PM 39.1660 -92.3520 94° East 551 634 37,000  Level FlightAware ADS-B
Sat 05:41:04 PM 39.1590 -92.2310 94° East 552 635 37,000  Level FlightAware ADS-B
Sat 05:41:35 PM 39.1530 -92.1310 94° East 552 635 37,000  Level FlightAware ADS-B
Sat 05:42:12 PM 39.1450 -92.0120 95° East 553 636 37,000  Level FlightAware ADS-B
Sat 05:42:46 PM 39.1380 -91.8960 94° East 554 638 37,000  Level FlightAware ADS-B
Sat 05:43:22 PM 39.1300 -91.7790 95° East 554 638 37,000  Level FlightAware ADS-B
Sat 05:43:55 PM 39.1230 -91.6690 95° East 555 639 37,000  Level FlightAware ADS-B
Sat 05:44:32 PM 39.1150 -91.5480 95° East 556 640 37,000  Level FlightAware ADS-B
Sat 05:45:09 PM 39.1060 -91.4260 95° East 556 640 37,000  Level FlightAware ADS-B
Sat 05:45:48 PM 39.0980 -91.3020 95° East 557 641 37,000  Level FlightAware ADS-B
Sat 05:46:25 PM 39.0890 -91.1780 95° East 557 641 37,000  Level FlightAware ADS-B
Sat 05:47:01 PM 39.0810 -91.0640 95° East 557 641 37,000  Level FlightAware ADS-B
Sat 05:47:32 PM 39.0730 -90.9540 95° East 557 641 37,000  Level FlightAware ADS-B
Sat 05:48:09 PM 39.0640 -90.8350 96° East 558 642 37,000  Level FlightAware ADS-B
Sat 05:49:05 PM 39.0600 -90.6510 92° East 561 646 37,000  Level FlightAware ADS-B
Sat 05:49:35 PM 39.0680 -90.5480 84° East 562 647 37,000  Level FlightAware ADS-B
Sat 05:50:18 PM 39.0840 -90.4090 82° East 563 648 37,000  Level FlightAware ADS-B
Sat 05:50:59 PM 39.0970 -90.2860 82° East 563 648 37,000  Level FlightAware ADS-B
Sat 05:51:32 PM 39.1100 -90.1640 82° East 562 647 37,000  Level FlightAware ADS-B
Sat 05:52:07 PM 39.1230 -90.0470 82° East 562 647 37,000  Level FlightAware ADS-B
Sat 05:52:38 PM 39.1340 -89.9440 82° East 562 647 37,000  Level FlightAware ADS-B
Sat 05:53:17 PM 39.1470 -89.8220 82° East 561 646 37,000  Level FlightAware ADS-B
Sat 05:53:51 PM 39.1600 -89.7090 82° East 561 646 37,000  Level FlightAware ADS-B
Sat 05:54:23 PM 39.1710 -89.6020 82° East 560 644 37,000  Level FlightAware ADS-B
Sat 05:55:00 PM 39.1850 -89.4780 82° East 560 644 37,000  Level FlightAware ADS-B
Sat 05:55:37 PM 39.1980 -89.3530 82° East 560 644 37,000  Level FlightAware ADS-B
Sat 05:56:11 PM 39.2100 -89.2390 82° East 561 646 37,000  Level FlightAware ADS-B
Sat 05:56:47 PM 39.2210 -89.1300 83° East 560 644 37,000  Level FlightAware ADS-B
Sat 05:57:19 PM 39.2330 -89.0190 82° East 560 644 37,000  Level FlightAware ADS-B
Sat 05:57:58 PM 39.2460 -88.8870 83° East 560 644 37,000  Level FlightAware ADS-B
Sat 05:58:33 PM 39.2580 -88.7690 82° East 561 646 37,000  Level FlightAware ADS-B
Sat 05:59:05 PM 39.2680 -88.6700 83° East 561 646 37,000  Level FlightAware ADS-B
Sat 05:59:41 PM 39.2800 -88.5450 83° East 563 648 37,000  Level FlightAware ADS-B
Sat 06:00:19 PM 39.2920 -88.4170 83° East 564 649 37,000  Level FlightAware ADS-B
Sat 06:00:58 PM 39.3050 -88.2900 82° East 565 650 37,000  Level FlightAware ADS-B
Sat 06:01:36 PM 39.3170 -88.1620 83° East 565 650 37,000  Level FlightAware ADS-B
Sat 06:02:08 PM 39.3260 -88.0600 83° East 565 650 37,000  Level FlightAware ADS-B
Sat 06:02:40 PM 39.3360 -87.9520 83° East 564 649 37,000  Level FlightAware ADS-B
Sat 06:03:20 PM 39.3490 -87.8180 83° East 564 649 37,000  Level FlightAware ADS-B
Sat 06:03:52 PM 39.3580 -87.7120 84° East 565 650 37,000  Level FlightAware ADS-B
Sat 06:04:30 PM 39.3690 -87.5870 83° East 565 650 37,000  Level FlightAware ADS-B
Sat 06:05:00 PM 39.3790 -87.4830 83° East 565 650 37,000  Level FlightAware ADS-B
Sat 06:05:39 PM 39.3900 -87.3540 84° East 564 649 37,000  Level FlightAware ADS-B
Sat 06:06:15 PM 39.4010 -87.2260 84° East 565 650 37,000  Level FlightAware ADS-B
Sat 06:06:50 PM 39.4110 -87.1100 84° East 564 649 37,000  Level FlightAware ADS-B
Sat 06:07:22 PM 39.4200 -87.0040 84° East 564 649 37,000  Level FlightAware ADS-B
Sat 06:07:59 PM 39.4300 -86.8800 84° East 564 649 37,000  Level FlightAware ADS-B
Sat 06:08:36 PM 39.4410 -86.7550 83° East 564 649 37,000  Level FlightAware ADS-B
Sat 06:09:08 PM 39.4490 -86.6480 84° East 564 649 37,000  Level FlightAware ADS-B
Sat 06:09:43 PM 39.4590 -86.5320 84° East 562 647 37,000  Level FlightAware ADS-B
Sat 06:10:20 PM 39.4680 -86.4130 84° East 562 647 37,000  Level FlightAware ADS-B
Sat 06:10:55 PM 39.4780 -86.2900 84° East 562 647 37,000  Level FlightAware ADS-B
Sat 06:11:30 PM 39.4870 -86.1760 84° East 561 646 37,000  Level FlightAware ADS-B
Sat 06:12:06 PM 39.4970 -86.0550 84° East 564 649 37,000  Level FlightAware ADS-B
Sat 06:12:35 PM 39.5190 -85.9610 73° East 566 651 37,000  Level FlightAware ADS-B
Sat 06:13:15 PM 39.5670 -85.8380 63° Northeast 565 650 37,000  Level FlightAware ADS-B
Sat 06:13:50 PM 39.6090 -85.7360 62° Northeast 565 650 37,000  Level FlightAware ADS-B
Sat 06:14:22 PM 39.6490 -85.6380 62° Northeast 564 649 37,000  Level FlightAware ADS-B
Sat 06:14:57 PM 39.6920 -85.5340 62° Northeast 563 648 37,000  Level FlightAware ADS-B
Sat 06:15:34 PM 39.7370 -85.4240 62° Northeast 562 647 37,000  Level FlightAware ADS-B
Sat 06:16:04 PM 39.7730 -85.3360 62° Northeast 561 646 37,000  Level FlightAware ADS-B
Sat 06:16:44 PM 39.8210 -85.2180 62° Northeast 562 647 37,000  Level FlightAware ADS-B
Sat 06:17:18 PM 39.8630 -85.1140 62° Northeast 562 647 37,000  Level FlightAware ADS-B
Sat 06:17:56 PM 39.9080 -85.0030 62° Northeast 561 646 37,000  Level FlightAware ADS-B
Sat 06:18:28 PM 39.9470 -84.9050 63° Northeast 561 646 37,000  Level FlightAware ADS-B
Sat 06:19:04 PM 39.9900 -84.7990 62° Northeast 562 647 37,000  Level FlightAware ADS-B
Sat 06:19:35 PM 40.0270 -84.7050 63° Northeast 562 647 37,000  Level FlightAware ADS-B
Sat 06:20:14 PM 40.0730 -84.5890 63° Northeast 562 647 37,000  Level FlightAware ADS-B
Sat 06:20:51 PM 40.1180 -84.4760 62° Northeast 561 646 37,000  Level FlightAware ADS-B
Sat 06:21:21 PM 40.1520 -84.3900 63° Northeast 560 644 37,000  Level FlightAware ADS-B
Sat 06:21:58 PM 40.1980 -84.2730 63° Northeast 560 644 37,000  Level FlightAware ADS-B
Sat 06:22:34 PM 40.2400 -84.1660 63° Northeast 560 644 37,000  Level FlightAware ADS-B
Sat 06:23:06 PM 40.2780 -84.0690 63° Northeast 559 643 37,000  Level FlightAware ADS-B
Sat 06:23:43 PM 40.3210 -83.9610 62° Northeast 558 642 37,000  Level FlightAware ADS-B
Sat 06:24:19 PM 40.3660 -83.8550 61° Northeast 556 640 37,000  Level FlightAware ADS-B
Sat 06:24:55 PM 40.4110 -83.7490 61° Northeast 557 641 37,000  Level FlightAware ADS-B
Sat 06:25:27 PM 40.4500 -83.6530 62° Northeast 558 642 37,000  Level FlightAware ADS-B
Sat 06:26:03 PM 40.4950 -83.5460 61° Northeast 559 643 37,000  Level FlightAware ADS-B
Sat 06:26:39 PM 40.5400 -83.4380 61° Northeast 561 646 37,000  Level FlightAware ADS-B
Sat 06:27:13 PM 40.5810 -83.3360 62° Northeast 565 650 37,000  Level FlightAware ADS-B
Sat 06:27:48 PM 40.6240 -83.2310 62° Northeast 569 655 37,000  Level FlightAware ADS-B
Sat 06:28:32 PM 40.6800 -83.0940 62° Northeast 572 658 37,000  Level FlightAware ADS-B
Sat 06:29:04 PM 40.7200 -82.9950 62° Northeast 574 661 37,000  Level FlightAware ADS-B
Sat 06:29:40 PM 40.7640 -82.8860 62° Northeast 576 663 37,000  Level FlightAware ADS-B
Sat 06:30:18 PM 40.8110 -82.7680 62° Northeast 575 662 37,000  Level FlightAware ADS-B
Sat 06:30:50 PM 40.8500 -82.6710 62° Northeast 576 663 37,000  Level FlightAware ADS-B
Sat 06:31:24 PM 40.8940 -82.5620 62° Northeast 577 664 37,000  Level FlightAware ADS-B
Sat 06:32:03 PM 40.9420 -82.4410 62° Northeast 577 664 37,000  Level FlightAware ADS-B
Sat 06:32:35 PM 40.9810 -82.3420 62° Northeast 576 663 37,000  Level FlightAware ADS-B
Sat 06:33:11 PM 41.0260 -82.2290 62° Northeast 576 663 37,000  Level FlightAware ADS-B
Sat 06:33:46 PM 41.0690 -82.1200 62° Northeast 575 662 37,000  Level FlightAware ADS-B
Sat 06:34:23 PM 41.1070 -82.0020 67° East 573 659 37,000  Level FlightAware ADS-B
Sat 06:34:55 PM 41.1330 -81.8940 72° East 572 658 37,000  Level FlightAware ADS-B
Sat 06:35:31 PM 41.1580 -81.7720 75° East 571 657 37,000  Level FlightAware ADS-B
Sat 06:36:07 PM 41.1830 -81.6500 75° East 571 657 37,000  Level FlightAware ADS-B
Sat 06:36:39 PM 41.2050 -81.5440 75° East 570 656 37,000  Level FlightAware ADS-B
Sat 06:37:16 PM 41.2300 -81.4170 75° East 568 654 37,000  Level FlightAware ADS-B
Sat 06:37:52 PM 41.2540 -81.2960 75° East 569 655 37,000  Level FlightAware ADS-B
Sat 06:38:27 PM 41.2770 -81.1790 75° East 567 652 37,000  Level FlightAware ADS-B
Sat 06:38:59 PM 41.2970 -81.0720 76° East 568 654 37,000  Level FlightAware ADS-B
Sat 06:39:35 PM 41.3200 -80.9500 76° East 569 655 37,000  Level FlightAware ADS-B
Sat 06:40:12 PM 41.3450 -80.8220 75° East 568 654 37,000  Level FlightAware ADS-B
Sat 06:40:44 PM 41.3650 -80.7150 76° East 568 654 37,000  Level FlightAware ADS-B
Sat 06:41:21 PM 41.3880 -80.5890 76° East 569 655 37,000  Level FlightAware ADS-B
Sat 06:41:56 PM 41.4100 -80.4710 76° East 569 655 37,000  Level FlightAware ADS-B
Sat 06:42:33 PM 41.4330 -80.3490 76° East 569 655 37,000  Level FlightAware ADS-B
Sat 06:43:03 PM 41.4520 -80.2460 76° East 568 654 37,000  Level FlightAware ADS-B
Sat 06:43:39 PM 41.4750 -80.1240 76° East 569 655 37,000  Level FlightAware ADS-B
Sat 06:44:19 PM 41.4990 -79.9910 76° East 569 655 37,000  Level FlightAware ADS-B
Sat 06:44:56 PM 41.5220 -79.8600 77° East 569 655 37,000  Level FlightAware ADS-B
Sat 06:45:31 PM 41.5430 -79.7430 76° East 570 656 37,000  Level FlightAware ADS-B
Sat 06:46:09 PM 41.5630 -79.6110 79° East 566 651 37,000  Level FlightAware ADS-B
Sat 06:46:41 PM 41.5750 -79.4980 82° East 565 650 37,000  Level FlightAware ADS-B
Sat 06:47:14 PM 41.5850 -79.3850 83° East 563 648 37,000  Level FlightAware ADS-B
Sat 06:47:55 PM 41.5930 -79.2450 86° East 562 647 37,000  Level FlightAware ADS-B
Sat 06:48:27 PM 41.6000 -79.1330 85° East 562 647 37,000  Level FlightAware ADS-B
Sat 06:49:04 PM 41.6060 -79.0050 86° East 563 648 37,000  Level FlightAware ADS-B
Sat 06:49:39 PM 41.6120 -78.8890 86° East 562 647 37,000  Level FlightAware ADS-B
Sat 06:50:11 PM 41.6170 -78.7710 87° East 562 647 37,000  Level FlightAware ADS-B
Sat 06:50:44 PM 41.6220 -78.6600 87° East 561 646 37,000  Level FlightAware ADS-B
Sat 06:51:21 PM 41.6280 -78.5340 86° East 562 647 37,000  Level FlightAware ADS-B
Sat 06:51:58 PM 41.6330 -78.4040 87° East 561 646 37,000  Level FlightAware ADS-B
Sat 06:52:35 PM 41.6380 -78.2770 87° East 561 646 37,000  Level FlightAware ADS-B
Sat 06:53:06 PM 41.6430 -78.1680 86° East 561 646 37,000  Level FlightAware ADS-B
Sat 06:53:42 PM 41.6470 -78.0480 87° East 560 644 37,000  Level FlightAware ADS-B
Sat 06:54:17 PM 41.6520 -77.9240 87° East 560 644 37,000  Level FlightAware ADS-B
Sat 06:54:58 PM 41.6580 -77.7830 87° East 558 642 37,000  Level FlightAware ADS-B
Sat 06:55:34 PM 41.6620 -77.6580 88° East 557 641 37,000  Level FlightAware ADS-B
Sat 06:56:10 PM 41.6660 -77.5350 87° East 556 640 37,000  Level FlightAware ADS-B
Sat 06:56:46 PM 41.6710 -77.4110 87° East 557 641 37,000  Level FlightAware ADS-B
Sat 06:57:18 PM 41.6740 -77.3020 88° East 560 644 37,000  Level FlightAware ADS-B
Sat 06:57:56 PM 41.6740 -77.1760 90° East 547 629 37,000  Level FlightAware ADS-B
Sat 06:58:28 PM 41.6570 -77.0720 102° East 526 605 37,000  Level FlightAware ADS-B
Sat 06:59:02 PM 41.6280 -76.9640 110° East 524 603 37,000  Level FlightAware ADS-B
Sat 06:59:41 PM 41.5990 -76.8580 110° East 524 603 37,000  Level FlightAware ADS-B
Sat 07:00:16 PM 41.5690 -76.7490 110° East 526 605 37,000  Level FlightAware ADS-B
Sat 07:00:57 PM 41.5370 -76.6320 110° East 528 608 37,000  Level FlightAware ADS-B
Sat 07:01:31 PM 41.5090 -76.5290 110° East 531 611 37,000 -87 Level FlightAware ADS-B
Sat 07:02:06 PM 41.4760 -76.4110 110° East 532 612 36,900 -738 Descending FlightAware ADS-B
Sat 07:02:36 PM 41.4520 -76.3230 110° East 535 616 36,200 -1,791 Descending FlightAware ADS-B
Sat 07:03:13 PM 41.4170 -76.1980 110° East 540 621 34,900 -1,760 Descending FlightAware ADS-B
Sat 07:03:51 PM 41.3820 -76.0750 111° Southeast 541 623 34,000 -1,397 Descending FlightAware ADS-B
Sat 07:04:26 PM 41.3530 -75.9710 110° East 540 621 33,200 -1,944 Descending FlightAware ADS-B
Sat 07:05:02 PM 41.3230 -75.8650 111° Southeast 541 623 31,700 -2,870 Descending FlightAware ADS-B
Sat 07:05:35 PM 41.2920 -75.7560 111° Southeast 539 620 29,900 -3,308 Descending FlightAware ADS-B
Sat 07:06:20 PM 41.2490 -75.6170 112° Southeast 530 610 27,400 -3,000 Descending FlightAware ADS-B
Sat 07:06:53 PM 41.2170 -75.5200 114° Southeast 516 594 26,000 -2,559 Descending FlightAware ADS-B
Sat 07:07:28 PM 41.1840 -75.4210 114° Southeast 504 580 24,500 -2,333 Descending FlightAware ADS-B
Sat 07:08:05 PM 41.1500 -75.3230 115° Southeast 500 575 23,200 -1,304 Descending FlightAware ADS-B
Sat 07:08:37 PM 41.1190 -75.2320 114° Southeast 499 574 23,000 -174 Descending FlightAware ADS-B
Sat 07:09:14 PM 41.0850 -75.1300 114° Southeast 489 563 23,000  Level FlightAware ADS-B
Sat 07:09:50 PM 41.0510 -75.0320 115° Southeast 474 545 23,000  Level FlightAware ADS-B
Sat 07:10:30 PM 41.0180 -74.9340 114° Southeast 474 545 23,000 -261 Level FlightAware ADS-B
Sat 07:10:59 PM 40.9950 -74.8430 108° East 498 573 22,700 -1,292 Descending FlightAware ADS-B
Sat 07:11:35 PM 40.9800 -74.7320 100° East 497 572 21,600 -2,314 Descending FlightAware ADS-B
Sat 07:12:09 PM 40.9700 -74.6310 97° East 495 570 20,000 -2,174 Descending FlightAware ADS-B
Sat 07:12:44 PM 40.9580 -74.5230 98° East 490 564 19,100 -833 Descending FlightAware ADS-B
Sat 07:13:21 PM 40.9470 -74.4200 98° East 489 563 19,000 -86 Descending FlightAware ADS-B
Sat 07:13:54 PM 40.9360 -74.3190 98° East 492 566 19,000  Level FlightAware ADS-B
Sat 07:14:29 PM 40.9250 -74.2190 98° East 463 533 19,000  Level FlightAware ADS-B
Sat 07:15:00 PM 40.9099 -74.1371 104° East 475 547 19,000  Level FlightAware ADS-B
Sat 07:15:05 PM 40.9059 -74.1243 112° Southeast 397 457 19,000  Level FlightAware ADS-B
Sat 07:15:16 PM 40.8974 -74.1030 118° Southeast 376 433 19,000  Level FlightAware ADS-B
Sat 07:15:21 PM 40.8923 -74.0934 125° Southeast 366 421 19,000  Level FlightAware ADS-B
Sat 07:15:30 PM 40.8824 -74.0792 133° Southeast 349 402 19,000  Level FlightAware ADS-B
Sat 07:15:41 PM 40.8685 -74.0651 143° Southeast 328 377 19,000 -600 Level FlightAware ADS-B
Sat 07:16:00 PM 40.8450 -74.0464 149° Southeast 316 364 18,700 -1,200 Descending FlightAware ADS-B (KSNC)
Sat 07:16:11 PM 40.8306 -74.0354 150° Southeast 314 361 18,400 -1,920 Descending FlightAware ADS-B
Sat 07:16:50 PM 40.7822 -73.9986 150° Southeast 308 354 17,100 -2,276 Descending FlightAware ADS-B
Sat 07:17:09 PM 40.7585 -73.9803 150° Southeast 304 350 16,200 -2,634 Descending FlightAware ADS-B (KSNC)
Sat 07:17:31 PM 40.7310 -73.9645 156° South 308 354 15,300 -2,250 Descending FlightAware ADS-B
Sat 07:18:13 PM 40.6830 -73.9450 163° South 285 328 13,800 -2,077 Descending FlightAware ADS-B
Sat 07:18:49 PM 40.6340 -73.9300 167° South 281 323 12,600 -2,294 Descending FlightAware ADS-B
Sat 07:19:21 PM 40.5950 -73.9180 167° South 282 325 11,200 -2,348 Descending FlightAware ADS-B
Sat 07:19:58 PM 40.5460 -73.9010 165° South 285 328 9,900 -2,000 Descending FlightAware ADS-B
Sat 07:20:06 PM 40.5390 -73.8960 152° Southeast 290 334 9,700 -1,742 Descending FlightAware ADS-B
Sat 07:20:24 PM 40.5187 -73.8704 136° Southeast 9,100 -1,778 Descending FlightAware ADS-B
Sat 07:21:00 PM 40.4880 -73.8230 130° Southeast 297 342 8,100 -1,500 Descending FlightAware ADS-B
Sat 07:21:16 PM 40.4750 -73.8030 131° Southeast 290 334 7,800 -833 Descending FlightAware ADS-B
Sat 07:21:36 PM 40.4570 -73.7780 133° Southeast 276 318 7,600 -462 Descending FlightAware ADS-B
Sat 07:21:55 PM 40.4410 -73.7520 129° Southeast 262 302 7,500 -444 Descending FlightAware ADS-B
Sat 07:22:03 PM 40.4360 -73.7400 119° Southeast 260 299 7,400 -400 Descending FlightAware ADS-B
Sat 07:22:10 PM 40.4340 -73.7300 105° East 260 299 7,400 -353 Level FlightAware ADS-B
Sat 07:22:20 PM 40.4350 -73.7150 85° East 259 298 7,300 -621 Descending FlightAware ADS-B
Sat 07:22:39 PM 40.4400 -73.6850 78° East 256 295 7,100 -300 Descending FlightAware ADS-B
Sat 07:23:00 PM 40.4470 -73.6540 73° East 260 299 7,100  Level FlightAware ADS-B
Sat 07:23:20 PM 40.4570 -73.6240 66° East 259 298 7,100 -214 Level FlightAware ADS-B
Sat 07:23:28 PM 40.4620 -73.6140 57° Northeast 258 297 7,000 -1,111 Descending FlightAware ADS-B
Sat 07:23:47 PM 40.4760 -73.5920 50° Northeast 255 293 6,600 -1,231 Descending FlightAware ADS-B
Sat 07:24:07 PM 40.4930 -73.5700 45° Northeast 253 291 6,200 -1,067 Descending FlightAware ADS-B
Sat 07:24:32 PM 40.5170 -73.5480 35° Northeast 250 288 5,800 -1,091 Descending FlightAware ADS-B
Sat 07:24:51 PM 40.5360 -73.5330 31° Northeast 249 287 5,400 -1,077 Descending FlightAware ADS-B
Sat 07:25:11 PM 40.5550 -73.5190 29° Northeast 247 284 5,100 -439 Descending FlightAware ADS-B
Sat 07:25:32 PM 40.5770 -73.5020 30° Northeast 250 288 5,100  Level FlightAware ADS-B
Sat 07:25:54 PM 40.5990 -73.4850 30° Northeast 249 287 5,100  Level FlightAware ADS-B
Sat 07:26:15 PM 40.6190 -73.4700 30° Northeast 247 284 5,100  Level FlightAware ADS-B
Sat 07:26:30 PM 40.6350 -73.4590 28° Northeast 245 282 5,100  Level FlightAware ADS-B
Sat 07:26:38 PM 40.6444 -73.4578 North 298 343 5,100  Level FlightAware ADS-B (KSNC)
Sat 07:27:18 PM 40.6880 -73.4640 354° North 237 273 5,100  Level FlightAware ADS-B
Sat 07:27:38 PM 40.7100 -73.4680 352° North 237 273 5,100  Level FlightAware ADS-B
Sat 07:28:03 PM 40.7370 -73.4730 352° North 238 274 5,100 -400 Level FlightAware ADS-B
Sat 07:28:23 PM 40.7590 -73.4770 352° North 235 270 4,800 -1,000 Descending FlightAware ADS-B
Sat 07:28:33 PM 40.7690 -73.4790 351° North 236 272 4,600 -1,500 Descending FlightAware ADS-B
Sat 07:28:59 PM 40.7970 -73.4850 351° North 229 264 3,900 -1,459 Descending FlightAware ADS-B
Sat 07:29:10 PM 40.8060 -73.4940 323° Northwest 217 250 3,700 -1,263 Descending FlightAware ADS-B
Sat 07:29:18 PM 40.8110 -73.5020 310° West 210 242 3,500 -1,241 Descending FlightAware ADS-B
Sat 07:29:39 PM 40.8220 -73.5230 305° West 214 246 3,100 -828 Descending FlightAware ADS-B
Sat 07:29:47 PM 40.8250 -73.5330 292° West 212 244 3,100  Level FlightAware ADS-B
Sat 07:29:54 PM 40.8260 -73.5420 278° West 208 239 3,100  Level FlightAware ADS-B
Sat 07:30:06 PM 40.8270 -73.5590 274° West 208 239 3,100 -125 Level FlightAware ADS-B
Sat 07:30:42 PM 40.8210 -73.6010 259° West 197 227 3,000 -375 Descending FlightAware ADS-B
Sat 07:30:54 PM 40.8140 -73.6130 232° Southwest 195 224 2,800 -800 Descending FlightAware ADS-B
Sat 07:31:12 PM 40.8030 -73.6280 226° Southwest 189 217 2,600 -533 Descending FlightAware ADS-B
Sat 07:31:39 PM 40.7850 -73.6460 217° Southwest 177 204 2,400 -533 Descending FlightAware ADS-B
Sat 07:31:57 PM 40.7730 -73.6550 210° Southwest 169 194 2,200 -450 Descending FlightAware ADS-B
Sat 07:32:19 PM 40.7580 -73.6670 211° Southwest 171 197 2,100 -140 Descending FlightAware ADS-B
Sat 07:32:40 PM 40.7430 -73.6780 209° Southwest 170 196 2,100  Level FlightAware ADS-B
Sat 07:32:56 PM 40.7320 -73.6870 212° Southwest 169 194 2,100 -529 Level FlightAware ADS-B
Sat 07:33:14 PM 40.7200 -73.6960 210° Southwest 154 177 1,800 -769 Descending FlightAware ADS-B
Sat 07:33:35 PM 40.7090 -73.7050 212° Southwest 137 158 1,600 -667 Descending FlightAware ADS-B
Sat 07:33:59 PM 40.6970 -73.7150 212° Southwest 124 143 1,300 -652 Descending FlightAware ADS-B
Sat 07:34:21 PM 40.6860 -73.7230 209° Southwest 125 144 1,100 -585 Descending FlightAware ADS-B
Sat 07:34:40 PM 40.6760 -73.7300 208° Southwest 126 145 900 -750 Descending FlightAware ADS-B
Sat 07:35:01 PM 40.6660 -73.7390 214° Southwest 125 144 600 -732 Descending FlightAware ADS-B
Sat 07:35:21 PM 40.6560 -73.7460 208° Southwest 129 148 400 -558 Descending FlightAware ADS-B
Sat 07:35:44 PM 40.6440 -73.7560 212° Southwest 131 151 200 -522 Descending FlightAware ADS-B
Sat 07:36:04 PM 40.6350 -73.7630 211° Southwest 86 99 -600 Descending FlightAware ADS-B

Login

Don't have an account? Register now (free) for customized features, flight alerts, and more!